Old Fort, Ohio
Current Conditions -  °F | °C
As of 10:13 PM on Friday 21 Nov 2014 (Local Time) from KPCW Reporting Station
Clear Clear  
Wind Chill:   Ceiling: Unl
Heat Index: 18°   Visibility: 10mi
Dew Point: 10°   Wind: 7mph
Humidity: 73%   Direction: 190°S
Pressure: 30.4"   Gusts: NA
Location:  41.24°N, 83.15°W
Report Text: KPCW 220313Z AUTO 19006KT 10SM CLR M08/M12 A3040 RMK AO2 $
Loading
Personal Weather Stations






























Interactive Weather Map New forecast layout! Learn more

10-Day Weather Forecast

Advertisements
Track Severe Weather on mobile